createdAt,value
2023-03-22T00:02:56.335Z,11.12
2023-03-22T00:05:59.461Z,10.99
2023-03-22T00:09:01.349Z,11.03
2023-03-22T00:12:03.245Z,11.14
2023-03-22T00:15:07.473Z,11.14
2023-03-22T00:18:12.536Z,11.19
2023-03-22T00:21:17.131Z,11.14
2023-03-22T00:24:20.994Z,11.08
2023-03-22T00:27:23.077Z,11.00
2023-03-22T00:30:24.838Z,10.94
2023-03-22T00:33:28.032Z,10.87
2023-03-22T00:36:31.399Z,10.95
2023-03-22T00:39:33.168Z,10.88
2023-03-22T00:42:35.354Z,11.01
2023-03-22T00:45:38.451Z,11.01
2023-03-22T00:48:40.773Z,10.98
2023-03-22T00:51:44.056Z,10.96
2023-03-22T00:54:45.849Z,11.07
2023-03-22T00:57:47.639Z,11.10
2023-03-22T01:00:49.920Z,11.06
2023-03-22T01:03:51.805Z,11.04
2023-03-22T01:07:03.490Z,11.01
2023-03-22T01:10:06.637Z,10.88
2023-03-22T01:13:11.665Z,10.97
2023-03-22T01:16:13.491Z,10.93
2023-03-22T01:19:15.402Z,10.99
2023-03-22T01:22:19.226Z,10.97
2023-03-22T01:25:21.012Z,10.70
2023-03-22T01:28:27.268Z,10.75
2023-03-22T01:31:30.236Z,10.75
2023-03-22T01:34:33.430Z,10.71
2023-03-22T01:37:38.082Z,10.90
2023-03-22T01:40:40.425Z,10.91
2023-03-22T01:43:43.180Z,10.86
2023-03-22T01:46:47.281Z,10.83
2023-03-22T01:49:49.329Z,10.84
2023-03-22T01:52:53.519Z,10.83
2023-03-22T01:56:07.589Z,10.84
2023-03-22T01:59:12.625Z,10.76
2023-03-22T02:02:34.832Z,10.80
2023-03-22T02:05:48.008Z,10.85
2023-03-22T02:08:53.042Z,10.85
2023-03-22T02:12:04.336Z,10.77
2023-03-22T02:15:16.185Z,10.78
2023-03-22T02:18:54.629Z,10.80
2023-03-22T02:22:21.695Z,10.70
2023-03-22T02:25:53.837Z,10.76
2023-03-22T02:29:03.613Z,10.78
2023-03-22T02:32:43.077Z,10.73
2023-03-22T02:36:22.304Z,10.73
2023-03-22T02:39:35.700Z,10.73
2023-03-22T02:42:46.485Z,10.71
2023-03-22T02:45:52.166Z,10.66
2023-03-22T02:49:02.644Z,10.64
2023-03-22T02:52:12.617Z,10.62
2023-03-22T02:55:20.436Z,10.69
2023-03-22T02:58:26.649Z,10.63
2023-03-22T03:01:31.123Z,10.76
2023-03-22T03:04:37.779Z,10.74
2023-03-22T03:07:44.252Z,10.80
2023-03-22T03:10:48.255Z,10.72
2023-03-22T03:13:51.103Z,10.71
2023-03-22T03:17:13.215Z,10.76
2023-03-22T03:20:29.968Z,10.75
2023-03-22T03:23:40.404Z,10.75
2023-03-22T03:26:53.376Z,10.73
2023-03-22T03:30:03.065Z,10.69
2023-03-22T03:33:09.430Z,10.67
2023-03-22T03:36:14.676Z,10.67
2023-03-22T03:39:18.254Z,10.64
2023-03-22T03:42:23.751Z,10.67
2023-03-22T03:45:26.292Z,10.64
2023-03-22T03:48:31.951Z,10.66
2023-03-22T03:51:45.139Z,10.62
2023-03-22T03:54:46.993Z,10.60
2023-03-22T03:57:54.546Z,10.57
2023-03-22T04:00:56.519Z,10.57
2023-03-22T04:04:15.199Z,10.61
2023-03-22T04:07:23.465Z,10.60
2023-03-22T04:10:25.325Z,10.52
2023-03-22T04:13:29.748Z,10.51
2023-03-22T04:16:34.662Z,10.55
2023-03-22T04:19:37.595Z,10.50
2023-03-22T04:22:41.576Z,10.54
2023-03-22T04:25:43.647Z,10.57
2023-03-22T04:28:48.490Z,10.55
2023-03-22T04:31:53.170Z,10.44
2023-03-22T04:35:02.331Z,10.49
2023-03-22T04:38:04.287Z,10.36
2023-03-22T04:41:07.839Z,10.37
2023-03-22T04:44:15.997Z,10.33
2023-03-22T04:47:23.821Z,10.28
2023-03-22T04:50:28.205Z,10.28
2023-03-22T04:53:38.825Z,10.26
2023-03-22T04:56:41.717Z,10.26
2023-03-22T04:59:45.044Z,10.17
2023-03-22T05:02:46.895Z,10.08
2023-03-22T05:05:58.262Z,9.97
2023-03-22T05:09:10.527Z,9.92
2023-03-22T05:12:12.601Z,9.83
2023-03-22T05:15:23.166Z,9.70
2023-03-22T05:18:26.381Z,9.65
2023-03-22T05:21:36.754Z,9.58
2023-03-22T05:24:39.852Z,9.52
2023-03-22T05:27:45.726Z,9.45
2023-03-22T05:31:12.927Z,9.55
2023-03-22T05:34:35.350Z,9.66
2023-03-22T05:37:45.692Z,9.57
2023-03-22T05:40:49.821Z,9.53
2023-03-22T05:43:51.758Z,9.53
2023-03-22T05:46:56.218Z,9.60
2023-03-22T05:50:05.579Z,9.52
2023-03-22T05:53:09.072Z,9.46
2023-03-22T05:56:25.270Z,9.49
2023-03-22T05:59:38.598Z,9.54
2023-03-22T06:02:46.183Z,9.50
2023-03-22T06:05:50.636Z,9.44
2023-03-22T06:08:56.451Z,9.39
2023-03-22T06:12:03.976Z,9.29
2023-03-22T06:15:07.379Z,9.27
2023-03-22T06:18:22.457Z,9.20
2023-03-22T06:21:34.208Z,9.20
2023-03-22T06:24:40.536Z,9.21
2023-03-22T06:27:43.917Z,9.24
2023-03-22T06:30:45.987Z,9.23
2023-03-22T06:34:01.471Z,9.32
2023-03-22T06:37:10.830Z,9.36
2023-03-22T06:40:15.601Z,9.33
2023-03-22T06:43:17.794Z,9.39
2023-03-22T06:46:22.799Z,9.40
2023-03-22T06:49:35.526Z,9.52
2023-03-22T06:52:38.117Z,9.53
2023-03-22T06:55:42.169Z,9.61
2023-03-22T06:58:52.309Z,9.96
2023-03-22T07:01:54.191Z,10.09
2023-03-22T07:04:57.664Z,10.22
2023-03-22T07:08:00.660Z,10.31
2023-03-22T07:11:04.003Z,10.41
2023-03-22T07:14:06.568Z,10.49
2023-03-22T07:17:28.619Z,10.44
2023-03-22T07:20:34.007Z,10.30
2023-03-22T07:23:35.983Z,10.37
2023-03-22T07:26:43.919Z,10.40
2023-03-22T07:29:50.930Z,10.29
2023-03-22T07:32:52.834Z,10.50
2023-03-22T07:35:56.438Z,10.71
2023-03-22T07:38:58.387Z,10.90
2023-03-22T07:42:09.998Z,11.15
2023-03-22T07:45:18.935Z,11.08
2023-03-22T07:48:22.831Z,11.10
2023-03-22T07:51:42.327Z,11.27
2023-03-22T07:54:44.211Z,11.32
2023-03-22T07:57:46.328Z,11.17
2023-03-22T08:00:49.712Z,11.11
2023-03-22T08:04:10.383Z,11.31
2023-03-22T08:07:34.762Z,11.50
2023-03-22T08:10:36.861Z,11.66
2023-03-22T08:13:39.701Z,11.83
2023-03-22T08:16:44.553Z,12.17
2023-03-22T08:19:47.153Z,12.15
2023-03-22T08:22:57.082Z,12.04
2023-03-22T08:26:01.629Z,12.05
2023-03-22T08:29:06.447Z,11.95
2023-03-22T08:32:11.308Z,11.99
2023-03-22T08:35:13.211Z,12.19
2023-03-22T08:38:18.345Z,12.28
2023-03-22T08:41:23.726Z,12.45
2023-03-22T08:44:26.155Z,12.82
2023-03-22T08:47:28.182Z,12.87
2023-03-22T08:50:34.988Z,13.38
2023-03-22T08:53:48.180Z,13.45
2023-03-22T08:57:14.287Z,13.43
2023-03-22T09:00:33.990Z,13.37
2023-03-22T09:03:47.874Z,13.45
2023-03-22T09:06:49.705Z,13.41
2023-03-22T09:09:53.204Z,13.16
2023-03-22T09:12:56.256Z,13.24
2023-03-22T09:15:58.149Z,13.33
2023-03-22T09:19:05.786Z,13.70
2023-03-22T09:22:08.745Z,13.84
2023-03-22T09:25:21.682Z,14.04
2023-03-22T09:28:26.552Z,14.05
2023-03-22T09:31:31.427Z,14.01
2023-03-22T09:34:48.882Z,14.30
2023-03-22T09:37:53.338Z,14.75
2023-03-22T09:41:02.660Z,14.53
2023-03-22T09:44:14.304Z,14.59
2023-03-22T09:47:18.689Z,14.78
2023-03-22T09:50:22.802Z,14.93
2023-03-22T09:53:28.131Z,15.03
2023-03-22T09:56:35.194Z,15.38
2023-03-22T09:59:42.679Z,15.09
2023-03-22T10:02:58.036Z,15.11
2023-03-22T10:06:03.116Z,14.90
2023-03-22T10:09:14.599Z,14.78
2023-03-22T10:12:26.521Z,14.89
2023-03-22T10:15:33.155Z,14.80
2023-03-22T10:18:38.139Z,14.76
2023-03-22T10:21:40.280Z,14.78
2023-03-22T10:24:46.316Z,14.66
2023-03-22T10:27:51.549Z,14.73
2023-03-22T10:30:58.063Z,14.79
2023-03-22T10:34:05.509Z,14.90
2023-03-22T10:37:12.021Z,14.99
2023-03-22T10:40:19.709Z,14.79
2023-03-22T10:43:28.278Z,15.19
2023-03-22T10:46:35.905Z,15.72
2023-03-22T10:49:49.363Z,15.84
2023-03-22T10:52:56.632Z,15.60
2023-03-22T10:56:20.170Z,16.22
2023-03-22T10:59:50.579Z,16.33
2023-03-22T11:02:58.390Z,16.22
2023-03-22T11:06:09.957Z,16.23
2023-03-22T11:09:13.681Z,16.58
2023-03-22T11:12:16.045Z,16.44
2023-03-22T11:15:31.698Z,16.65
2023-03-22T11:18:34.656Z,16.84
2023-03-22T11:21:38.226Z,17.12
2023-03-22T11:24:40.180Z,17.09
2023-03-22T11:27:51.364Z,16.59
2023-03-22T11:31:04.873Z,16.24
2023-03-22T11:34:16.302Z,16.58
2023-03-22T11:37:18.390Z,16.93
2023-03-22T11:40:23.821Z,16.93
2023-03-22T11:43:31.359Z,16.56
2023-03-22T11:46:37.696Z,16.43
2023-03-22T11:49:45.428Z,16.71
2023-03-22T11:52:48.780Z,17.50
2023-03-22T11:55:55.737Z,17.58
2023-03-22T11:59:05.819Z,17.26
2023-03-22T12:02:20.331Z,17.15
2023-03-22T12:05:25.583Z,17.20
2023-03-22T12:08:40.955Z,18.08
2023-03-22T12:11:48.387Z,18.65
2023-03-22T12:14:54.394Z,18.66
2023-03-22T12:18:03.194Z,19.32
2023-03-22T12:21:12.880Z,18.69
2023-03-22T12:24:25.660Z,18.13
2023-03-22T12:27:34.102Z,18.01
2023-03-22T12:30:43.186Z,18.58
2023-03-22T12:33:49.177Z,18.35
2023-03-22T12:36:55.524Z,18.39
2023-03-22T12:40:02.011Z,18.32
2023-03-22T12:43:15.778Z,18.46
2023-03-22T12:46:22.242Z,18.32
2023-03-22T12:49:32.548Z,18.26
2023-03-22T12:52:45.385Z,18.92
2023-03-22T12:55:49.075Z,18.78
2023-03-22T12:58:54.745Z,18.37
2023-03-22T13:02:00.168Z,18.56
2023-03-22T13:05:06.683Z,18.61
2023-03-22T13:08:09.010Z,19.15
2023-03-22T13:11:23.388Z,18.59
2023-03-22T13:14:57.987Z,18.85
2023-03-22T13:17:59.943Z,19.15
2023-03-22T13:21:16.937Z,18.72
2023-03-22T13:24:23.075Z,18.88
2023-03-22T13:27:35.555Z,18.89
2023-03-22T13:30:49.262Z,19.14
2023-03-22T13:33:53.439Z,19.16
2023-03-22T13:36:59.192Z,19.60
2023-03-22T13:40:02.538Z,20.14
2023-03-22T13:43:19.522Z,19.66
2023-03-22T13:46:44.340Z,20.22
2023-03-22T13:49:58.964Z,20.24
2023-03-22T13:53:12.303Z,19.35
2023-03-22T13:56:27.938Z,19.49
2023-03-22T13:59:33.849Z,19.38
2023-03-22T14:02:41.781Z,20.10
2023-03-22T14:05:46.698Z,20.26
2023-03-22T14:08:58.298Z,20.61
2023-03-22T14:12:08.492Z,20.69
2023-03-22T14:15:16.843Z,20.69
2023-03-22T14:18:23.971Z,19.92
2023-03-22T14:21:31.014Z,19.89
